sensor_id;sensor_type;location;lat;lon;timestamp;temperature;humidity
19878;DHT22;10101;52.204;9.910;2022-09-20T00:01:15;9.00;99.90
19878;DHT22;10101;52.204;9.910;2022-09-20T00:03:44;9.00;99.90
19878;DHT22;10101;52.204;9.910;2022-09-20T00:06:12;9.00;99.90
19878;DHT22;10101;52.204;9.910;2022-09-20T00:08:41;9.00;99.90
19878;DHT22;10101;52.204;9.910;2022-09-20T00:11:10;8.90;99.90
19878;DHT22;10101;52.204;9.910;2022-09-20T00:13:38;9.00;99.90
19878;DHT22;10101;52.204;9.910;2022-09-20T00:16:06;9.00;99.90
19878;DHT22;10101;52.204;9.910;2022-09-20T00:18:33;8.90;99.90
19878;DHT22;10101;52.204;9.910;2022-09-20T00:21:00;8.90;99.90
19878;DHT22;10101;52.204;9.910;2022-09-20T00:23:27;8.90;99.90
19878;DHT22;10101;52.204;9.910;2022-09-20T00:25:57;8.90;99.90
19878;DHT22;10101;52.204;9.910;2022-09-20T00:28:24;8.80;99.90
19878;DHT22;10101;52.204;9.910;2022-09-20T00:30:52;8.80;99.90
19878;DHT22;10101;52.204;9.910;2022-09-20T00:33:20;8.90;99.90
19878;DHT22;10101;52.204;9.910;2022-09-20T00:35:47;8.90;99.90
19878;DHT22;10101;52.204;9.910;2022-09-20T00:38:13;8.90;99.90
19878;DHT22;10101;52.204;9.910;2022-09-20T00:40:40;8.80;99.90
19878;DHT22;10101;52.204;9.910;2022-09-20T00:45:34;8.70;99.90
19878;DHT22;10101;52.204;9.910;2022-09-20T00:48:04;8.60;99.90
19878;DHT22;10101;52.204;9.910;2022-09-20T00:50:37;8.60;99.90
19878;DHT22;10101;52.204;9.910;2022-09-20T00:53:10;8.60;99.90
19878;DHT22;10101;52.204;9.910;2022-09-20T00:55:39;8.60;99.90
19878;DHT22;10101;52.204;9.910;2022-09-20T00:58:11;8.60;99.90
19878;DHT22;10101;52.204;9.910;2022-09-20T01:00:39;8.50;99.90
19878;DHT22;10101;52.204;9.910;2022-09-20T01:03:08;8.40;99.90
19878;DHT22;10101;52.204;9.910;2022-09-20T01:05:36;8.40;99.90
19878;DHT22;10101;52.204;9.910;2022-09-20T01:08:05;8.30;99.90
19878;DHT22;10101;52.204;9.910;2022-09-20T01:10:32;8.20;99.90
19878;DHT22;10101;52.204;9.910;2022-09-20T01:12:59;8.20;99.90
19878;DHT22;10101;52.204;9.910;2022-09-20T01:15:27;8.10;99.90
19878;DHT22;10101;52.204;9.910;2022-09-20T01:17:57;8.00;99.90
19878;DHT22;10101;52.204;9.910;2022-09-20T01:20:28;8.00;99.90
19878;DHT22;10101;52.204;9.910;2022-09-20T01:23:09;8.00;99.90
19878;DHT22;10101;52.204;9.910;2022-09-20T01:26:02;8.00;99.90
19878;DHT22;10101;52.204;9.910;2022-09-20T01:28:34;7.90;99.90
19878;DHT22;10101;52.204;9.910;2022-09-20T01:31:06;8.10;99.90
19878;DHT22;10101;52.204;9.910;2022-09-20T01:33:40;7.90;99.90
19878;DHT22;10101;52.204;9.910;2022-09-20T01:36:13;7.90;99.90
19878;DHT22;10101;52.204;9.910;2022-09-20T01:38:44;8.00;99.90
19878;DHT22;10101;52.204;9.910;2022-09-20T01:41:17;7.90;99.90
19878;DHT22;10101;52.204;9.910;2022-09-20T01:43:52;7.90;99.90
19878;DHT22;10101;52.204;9.910;2022-09-20T01:46:28;8.00;99.90
19878;DHT22;10101;52.204;9.910;2022-09-20T01:49:08;8.00;99.90
19878;DHT22;10101;52.204;9.910;2022-09-20T01:55:07;8.20;99.90
19878;DHT22;10101;52.204;9.910;2022-09-20T01:58:02;8.20;99.90
19878;DHT22;10101;52.204;9.910;2022-09-20T02:00:43;8.30;99.90
19878;DHT22;10101;52.204;9.910;2022-09-20T02:03:38;8.40;99.90
19878;DHT22;10101;52.204;9.910;2022-09-20T02:06:18;8.50;99.90
19878;DHT22;10101;52.204;9.910;2022-09-20T02:09:17;8.60;99.90
19878;DHT22;10101;52.204;9.910;2022-09-20T02:12:04;8.70;99.90
19878;DHT22;10101;52.204;9.910;2022-09-20T02:14:42;8.70;99.90
19878;DHT22;10101;52.204;9.910;2022-09-20T02:17:21;8.80;99.90
19878;DHT22;10101;52.204;9.910;2022-09-20T02:20:12;8.90;99.90
19878;DHT22;10101;52.204;9.910;2022-09-20T02:25:52;8.90;99.90
19878;DHT22;10101;52.204;9.910;2022-09-20T02:28:30;9.00;99.90
19878;DHT22;10101;52.204;9.910;2022-09-20T02:31:05;9.00;99.90
19878;DHT22;10101;52.204;9.910;2022-09-20T02:33:51;9.00;99.90
19878;DHT22;10101;52.204;9.910;2022-09-20T02:36:34;9.00;99.90
19878;DHT22;10101;52.204;9.910;2022-09-20T02:39:10;9.00;99.90
19878;DHT22;10101;52.204;9.910;2022-09-20T02:41:51;9.00;99.90
19878;DHT22;10101;52.204;9.910;2022-09-20T02:44:27;8.90;99.90
19878;DHT22;10101;52.204;9.910;2022-09-20T02:47:02;8.90;99.90
19878;DHT22;10101;52.204;9.910;2022-09-20T02:49:40;8.80;99.90
19878;DHT22;10101;52.204;9.910;2022-09-20T02:52:19;8.80;99.90
19878;DHT22;10101;52.204;9.910;2022-09-20T02:54:56;8.80;99.90
19878;DHT22;10101;52.204;9.910;2022-09-20T02:57:30;8.80;99.90
19878;DHT22;10101;52.204;9.910;2022-09-20T03:00:02;8.70;99.90
19878;DHT22;10101;52.204;9.910;2022-09-20T03:02:34;8.70;99.90
19878;DHT22;10101;52.204;9.910;2022-09-20T03:05:11;8.70;99.90
19878;DHT22;10101;52.204;9.910;2022-09-20T03:07:55;8.60;99.90
19878;DHT22;10101;52.204;9.910;2022-09-20T03:10:30;8.60;99.90
19878;DHT22;10101;52.204;9.910;2022-09-20T03:13:11;8.60;99.90
19878;DHT22;10101;52.204;9.910;2022-09-20T03:15:48;8.60;99.90
19878;DHT22;10101;52.204;9.910;2022-09-20T03:18:28;8.70;99.90
19878;DHT22;10101;52.204;9.910;2022-09-20T03:21:07;8.70;99.90
19878;DHT22;10101;52.204;9.910;2022-09-20T03:23:46;8.70;99.90
19878;DHT22;10101;52.204;9.910;2022-09-20T03:26:20;8.70;99.90
19878;DHT22;10101;52.204;9.910;2022-09-20T03:28:56;8.80;99.90
19878;DHT22;10101;52.204;9.910;2022-09-20T03:31:42;8.80;99.90
19878;DHT22;10101;52.204;9.910;2022-09-20T03:34:23;8.80;99.90
19878;DHT22;10101;52.204;9.910;2022-09-20T03:37:05;8.80;99.90
19878;DHT22;10101;52.204;9.910;2022-09-20T03:42:45;8.80;99.90
19878;DHT22;10101;52.204;9.910;2022-09-20T03:45:33;8.90;99.90
19878;DHT22;10101;52.204;9.910;2022-09-20T03:48:26;8.90;99.90
19878;DHT22;10101;52.204;9.910;2022-09-20T03:51:12;8.90;99.90
19878;DHT22;10101;52.204;9.910;2022-09-20T03:53:58;8.90;99.90
19878;DHT22;10101;52.204;9.910;2022-09-20T03:59:28;8.90;99.90
19878;DHT22;10101;52.204;9.910;2022-09-20T04:02:10;9.00;99.90
19878;DHT22;10101;52.204;9.910;2022-09-20T04:04:43;8.90;99.90
19878;DHT22;10101;52.204;9.910;2022-09-20T04:07:17;8.90;99.90
19878;DHT22;10101;52.204;9.910;2022-09-20T04:10:12;8.90;99.90
19878;DHT22;10101;52.204;9.910;2022-09-20T04:12:52;8.90;99.90
19878;DHT22;10101;52.204;9.910;2022-09-20T04:15:30;9.00;99.90
19878;DHT22;10101;52.204;9.910;2022-09-20T04:18:02;9.00;99.90
19878;DHT22;10101;52.204;9.910;2022-09-20T04:20:35;9.00;99.90
19878;DHT22;10101;52.204;9.910;2022-09-20T04:23:11;9.10;99.90
19878;DHT22;10101;52.204;9.910;2022-09-20T04:25:45;9.10;99.90
19878;DHT22;10101;52.204;9.910;2022-09-20T04:28:16;9.00;99.90
19878;DHT22;10101;52.204;9.910;2022-09-20T04:30:45;9.00;99.90
19878;DHT22;10101;52.204;9.910;2022-09-20T04:33:17;9.00;99.90
19878;DHT22;10101;52.204;9.910;2022-09-20T04:35:52;9.00;99.90
19878;DHT22;10101;52.204;9.910;2022-09-20T04:38:39;9.00;99.90
19878;DHT22;10101;52.204;9.910;2022-09-20T04:41:33;9.00;99.90
19878;DHT22;10101;52.204;9.910;2022-09-20T04:47:41;9.10;99.90
19878;DHT22;10101;52.204;9.910;2022-09-20T04:53:24;9.10;99.90
19878;DHT22;10101;52.204;9.910;2022-09-20T04:55:58;9.10;99.90
19878;DHT22;10101;52.204;9.910;2022-09-20T04:58:48;9.20;99.90
19878;DHT22;10101;52.204;9.910;2022-09-20T05:11:20;9.20;99.90
19878;DHT22;10101;52.204;9.910;2022-09-20T05:14:06;9.30;99.90
19878;DHT22;10101;52.204;9.910;2022-09-20T05:16:49;9.30;99.90
19878;DHT22;10101;52.204;9.910;2022-09-20T05:19:27;9.30;99.90
19878;DHT22;10101;52.204;9.910;2022-09-20T05:22:22;9.30;99.90
19878;DHT22;10101;52.204;9.910;2022-09-20T05:25:07;9.30;99.90
19878;DHT22;10101;52.204;9.910;2022-09-20T05:27:41;9.30;99.90
19878;DHT22;10101;52.204;9.910;2022-09-20T05:30:24;9.30;99.90
19878;DHT22;10101;52.204;9.910;2022-09-20T05:32:57;9.30;99.90
19878;DHT22;10101;52.204;9.910;2022-09-20T05:35:35;9.40;99.90
19878;DHT22;10101;52.204;9.910;2022-09-20T05:38:12;9.30;99.90
19878;DHT22;10101;52.204;9.910;2022-09-20T05:40:56;9.40;99.90
19878;DHT22;10101;52.204;9.910;2022-09-20T05:43:31;9.40;99.90
19878;DHT22;10101;52.204;9.910;2022-09-20T05:46:13;9.40;99.90
19878;DHT22;10101;52.204;9.910;2022-09-20T05:48:51;9.40;99.90
19878;DHT22;10101;52.204;9.910;2022-09-20T05:51:30;9.40;99.90
19878;DHT22;10101;52.204;9.910;2022-09-20T05:54:22;9.50;99.90
19878;DHT22;10101;52.204;9.910;2022-09-20T05:56:58;9.50;99.90
19878;DHT22;10101;52.204;9.910;2022-09-20T05:59:36;9.50;99.90
19878;DHT22;10101;52.204;9.910;2022-09-20T06:02:20;9.50;99.90
19878;DHT22;10101;52.204;9.910;2022-09-20T06:04:58;9.50;99.90
19878;DHT22;10101;52.204;9.910;2022-09-20T06:07:33;9.50;99.90
19878;DHT22;10101;52.204;9.910;2022-09-20T06:10:21;9.60;99.90
19878;DHT22;10101;52.204;9.910;2022-09-20T06:12:59;9.50;99.90
19878;DHT22;10101;52.204;9.910;2022-09-20T06:15:35;9.60;99.90
19878;DHT22;10101;52.204;9.910;2022-09-20T06:18:15;9.50;99.90
19878;DHT22;10101;52.204;9.910;2022-09-20T06:20:49;9.50;99.90
19878;DHT22;10101;52.204;9.910;2022-09-20T06:23:17;9.50;99.90
19878;DHT22;10101;52.204;9.910;2022-09-20T06:25:48;9.50;99.90
19878;DHT22;10101;52.204;9.910;2022-09-20T06:28:22;9.50;99.90
19878;DHT22;10101;52.204;9.910;2022-09-20T06:30:52;9.50;99.90
19878;DHT22;10101;52.204;9.910;2022-09-20T06:33:22;9.50;99.90
19878;DHT22;10101;52.204;9.910;2022-09-20T06:35:53;9.50;99.90
19878;DHT22;10101;52.204;9.910;2022-09-20T06:38:35;9.50;99.90
19878;DHT22;10101;52.204;9.910;2022-09-20T06:41:23;9.50;99.90
19878;DHT22;10101;52.204;9.910;2022-09-20T06:43:54;9.60;99.90
19878;DHT22;10101;52.204;9.910;2022-09-20T06:46:23;9.50;99.90
19878;DHT22;10101;52.204;9.910;2022-09-20T06:48:51;9.50;99.90
19878;DHT22;10101;52.204;9.910;2022-09-20T06:51:18;9.60;99.90
19878;DHT22;10101;52.204;9.910;2022-09-20T06:53:45;9.60;99.90
19878;DHT22;10101;52.204;9.910;2022-09-20T06:56:16;9.70;99.90
19878;DHT22;10101;52.204;9.910;2022-09-20T06:58:44;9.70;99.90
19878;DHT22;10101;52.204;9.910;2022-09-20T07:01:10;9.70;99.90
19878;DHT22;10101;52.204;9.910;2022-09-20T07:03:38;9.70;99.90
19878;DHT22;10101;52.204;9.910;2022-09-20T07:06:07;9.70;99.90
19878;DHT22;10101;52.204;9.910;2022-09-20T07:08:34;9.70;99.90
19878;DHT22;10101;52.204;9.910;2022-09-20T07:11:05;9.80;99.90
19878;DHT22;10101;52.204;9.910;2022-09-20T07:13:34;9.80;99.90
19878;DHT22;10101;52.204;9.910;2022-09-20T07:16:02;9.80;99.90
19878;DHT22;10101;52.204;9.910;2022-09-20T07:18:29;9.90;99.90
19878;DHT22;10101;52.204;9.910;2022-09-20T07:20:57;9.90;99.90
19878;DHT22;10101;52.204;9.910;2022-09-20T07:23:26;10.00;99.90
19878;DHT22;10101;52.204;9.910;2022-09-20T07:25:54;10.10;99.90
19878;DHT22;10101;52.204;9.910;2022-09-20T07:28:23;10.10;99.90
19878;DHT22;10101;52.204;9.910;2022-09-20T07:30:50;10.10;99.90
19878;DHT22;10101;52.204;9.910;2022-09-20T07:33:17;10.20;99.90
19878;DHT22;10101;52.204;9.910;2022-09-20T07:35:46;10.20;99.90
19878;DHT22;10101;52.204;9.910;2022-09-20T07:38:13;10.30;99.90
19878;DHT22;10101;52.204;9.910;2022-09-20T07:40:42;10.40;99.90
19878;DHT22;10101;52.204;9.910;2022-09-20T07:43:10;10.40;99.90
19878;DHT22;10101;52.204;9.910;2022-09-20T07:45:38;10.40;99.90
19878;DHT22;10101;52.204;9.910;2022-09-20T07:48:05;10.50;99.90
19878;DHT22;10101;52.204;9.910;2022-09-20T07:50:34;10.60;99.90
19878;DHT22;10101;52.204;9.910;2022-09-20T07:53:00;10.50;99.90
19878;DHT22;10101;52.204;9.910;2022-09-20T07:55:28;10.40;99.90
19878;DHT22;10101;52.204;9.910;2022-09-20T07:57:56;10.50;99.90
19878;DHT22;10101;52.204;9.910;2022-09-20T08:00:23;10.50;99.90
19878;DHT22;10101;52.204;9.910;2022-09-20T08:02:57;10.80;99.90
19878;DHT22;10101;52.204;9.910;2022-09-20T08:05:24;10.50;99.90
19878;DHT22;10101;52.204;9.910;2022-09-20T08:07:51;10.50;99.90
19878;DHT22;10101;52.204;9.910;2022-09-20T08:10:18;10.50;99.90
19878;DHT22;10101;52.204;9.910;2022-09-20T08:12:45;10.40;99.90
19878;DHT22;10101;52.204;9.910;2022-09-20T08:15:13;10.40;99.90
19878;DHT22;10101;52.204;9.910;2022-09-20T08:17:40;10.40;99.90
19878;DHT22;10101;52.204;9.910;2022-09-20T08:20:08;10.60;99.90
19878;DHT22;10101;52.204;9.910;2022-09-20T08:22:35;10.70;99.90
19878;DHT22;10101;52.204;9.910;2022-09-20T08:25:04;10.90;99.90
19878;DHT22;10101;52.204;9.910;2022-09-20T08:27:31;10.80;99.90
19878;DHT22;10101;52.204;9.910;2022-09-20T08:29:58;11.00;99.90
19878;DHT22;10101;52.204;9.910;2022-09-20T08:32:27;11.10;99.90
19878;DHT22;10101;52.204;9.910;2022-09-20T08:34:54;11.40;99.90
19878;DHT22;10101;52.204;9.910;2022-09-20T08:37:21;11.30;99.90
19878;DHT22;10101;52.204;9.910;2022-09-20T08:39:48;11.40;99.90
19878;DHT22;10101;52.204;9.910;2022-09-20T08:42:23;11.60;99.90
19878;DHT22;10101;52.204;9.910;2022-09-20T08:44:56;11.80;99.90
19878;DHT22;10101;52.204;9.910;2022-09-20T08:47:25;12.10;99.90
19878;DHT22;10101;52.204;9.910;2022-09-20T08:49:54;12.30;99.90
19878;DHT22;10101;52.204;9.910;2022-09-20T08:52:26;12.30;99.90
19878;DHT22;10101;52.204;9.910;2022-09-20T08:54:55;12.50;99.90
19878;DHT22;10101;52.204;9.910;2022-09-20T08:57:25;12.80;99.90
19878;DHT22;10101;52.204;9.910;2022-09-20T08:59:53;12.80;99.90
19878;DHT22;10101;52.204;9.910;2022-09-20T09:02:20;12.80;99.90
19878;DHT22;10101;52.204;9.910;2022-09-20T09:04:49;12.70;99.90
19878;DHT22;10101;52.204;9.910;2022-09-20T09:07:20;12.60;99.90
19878;DHT22;10101;52.204;9.910;2022-09-20T09:09:51;12.40;99.90
19878;DHT22;10101;52.204;9.910;2022-09-20T09:12:22;12.30;99.90
19878;DHT22;10101;52.204;9.910;2022-09-20T09:14:50;12.40;99.90
19878;DHT22;10101;52.204;9.910;2022-09-20T09:17:21;12.50;99.90
19878;DHT22;10101;52.204;9.910;2022-09-20T09:19:50;12.50;99.90
19878;DHT22;10101;52.204;9.910;2022-09-20T09:22:22;12.40;99.90
19878;DHT22;10101;52.204;9.910;2022-09-20T09:25:23;12.40;99.90
19878;DHT22;10101;52.204;9.910;2022-09-20T09:27:55;12.60;99.90
19878;DHT22;10101;52.204;9.910;2022-09-20T09:30:25;12.70;99.90
19878;DHT22;10101;52.204;9.910;2022-09-20T09:32:53;12.70;99.90
19878;DHT22;10101;52.204;9.910;2022-09-20T09:35:39;12.80;99.90
19878;DHT22;10101;52.204;9.910;2022-09-20T09:38:16;12.90;99.90
19878;DHT22;10101;52.204;9.910;2022-09-20T09:40:50;12.90;99.90
19878;DHT22;10101;52.204;9.910;2022-09-20T09:43:23;12.70;99.90
19878;DHT22;10101;52.204;9.910;2022-09-20T09:45:52;12.90;99.90
19878;DHT22;10101;52.204;9.910;2022-09-20T09:48:22;12.90;99.90
19878;DHT22;10101;52.204;9.910;2022-09-20T09:50:49;12.80;99.90
19878;DHT22;10101;52.204;9.910;2022-09-20T09:53:21;12.80;99.90
19878;DHT22;10101;52.204;9.910;2022-09-20T09:56:01;13.00;99.90
19878;DHT22;10101;52.204;9.910;2022-09-20T09:58:42;13.10;99.90
19878;DHT22;10101;52.204;9.910;2022-09-20T10:01:28;13.30;99.90
19878;DHT22;10101;52.204;9.910;2022-09-20T10:04:00;13.20;99.90
19878;DHT22;10101;52.204;9.910;2022-09-20T10:06:35;13.10;99.90
19878;DHT22;10101;52.204;9.910;2022-09-20T10:09:20;13.20;99.90
19878;DHT22;10101;52.204;9.910;2022-09-20T10:11:58;13.40;99.90
19878;DHT22;10101;52.204;9.910;2022-09-20T10:14:36;13.50;99.90
19878;DHT22;10101;52.204;9.910;2022-09-20T10:17:24;13.50;99.90
19878;DHT22;10101;52.204;9.910;2022-09-20T10:20:02;13.30;99.90
19878;DHT22;10101;52.204;9.910;2022-09-20T10:22:42;13.70;99.90
19878;DHT22;10101;52.204;9.910;2022-09-20T10:25:23;13.80;99.90
19878;DHT22;10101;52.204;9.910;2022-09-20T10:28:04;13.90;99.90
19878;DHT22;10101;52.204;9.910;2022-09-20T10:30:41;13.90;99.90
19878;DHT22;10101;52.204;9.910;2022-09-20T10:33:22;13.70;99.90
19878;DHT22;10101;52.204;9.910;2022-09-20T10:36:07;13.70;99.90
19878;DHT22;10101;52.204;9.910;2022-09-20T10:38:41;13.50;99.90
19878;DHT22;10101;52.204;9.910;2022-09-20T10:41:22;13.50;99.90
19878;DHT22;10101;52.204;9.910;2022-09-20T10:44:21;13.30;99.90
19878;DHT22;10101;52.204;9.910;2022-09-20T10:46:58;13.50;99.90
19878;DHT22;10101;52.204;9.910;2022-09-20T10:49:34;13.30;99.90
19878;DHT22;10101;52.204;9.910;2022-09-20T10:52:19;13.30;99.90
19878;DHT22;10101;52.204;9.910;2022-09-20T10:55:18;13.20;99.90
19878;DHT22;10101;52.204;9.910;2022-09-20T10:58:20;13.20;99.90
19878;DHT22;10101;52.204;9.910;2022-09-20T11:00:58;13.30;99.90
19878;DHT22;10101;52.204;9.910;2022-09-20T11:03:44;13.50;99.90
19878;DHT22;10101;52.204;9.910;2022-09-20T11:06:20;13.70;99.90
19878;DHT22;10101;52.204;9.910;2022-09-20T11:08:53;13.70;99.90
19878;DHT22;10101;52.204;9.910;2022-09-20T11:11:24;14.10;99.90
19878;DHT22;10101;52.204;9.910;2022-09-20T11:13:58;14.20;99.90
19878;DHT22;10101;52.204;9.910;2022-09-20T11:16:32;14.20;99.90
19878;DHT22;10101;52.204;9.910;2022-09-20T11:19:07;14.40;99.90
19878;DHT22;10101;52.204;9.910;2022-09-20T11:21:42;14.50;99.90
19878;DHT22;10101;52.204;9.910;2022-09-20T11:24:20;14.70;99.90
19878;DHT22;10101;52.204;9.910;2022-09-20T11:26:52;14.80;99.90
19878;DHT22;10101;52.204;9.910;2022-09-20T11:29:26;14.90;99.90
19878;DHT22;10101;52.204;9.910;2022-09-20T11:32:00;15.10;99.90
19878;DHT22;10101;52.204;9.910;2022-09-20T11:34:30;15.20;99.90
19878;DHT22;10101;52.204;9.910;2022-09-20T11:37:00;15.10;99.90
19878;DHT22;10101;52.204;9.910;2022-09-20T11:39:33;15.20;99.90
19878;DHT22;10101;52.204;9.910;2022-09-20T11:42:03;15.10;99.90
19878;DHT22;10101;52.204;9.910;2022-09-20T11:44:40;14.90;99.90
19878;DHT22;10101;52.204;9.910;2022-09-20T11:47:13;15.10;99.90
19878;DHT22;10101;52.204;9.910;2022-09-20T11:50:01;15.10;99.90
19878;DHT22;10101;52.204;9.910;2022-09-20T11:52:45;14.90;99.90
19878;DHT22;10101;52.204;9.910;2022-09-20T11:55:25;15.00;99.90
19878;DHT22;10101;52.204;9.910;2022-09-20T11:58:04;14.90;99.90
19878;DHT22;10101;52.204;9.910;2022-09-20T12:00:35;14.80;99.90
19878;DHT22;10101;52.204;9.910;2022-09-20T12:03:06;15.00;99.90
19878;DHT22;10101;52.204;9.910;2022-09-20T12:05:39;14.70;1.00
19878;DHT22;10101;52.204;9.910;2022-09-20T12:08:19;14.70;99.90
19878;DHT22;10101;52.204;9.910;2022-09-20T12:10:55;14.80;99.90
19878;DHT22;10101;52.204;9.910;2022-09-20T12:13:25;14.60;1.00
19878;DHT22;10101;52.204;9.910;2022-09-20T12:16:00;14.80;1.00
19878;DHT22;10101;52.204;9.910;2022-09-20T12:18:30;14.90;99.90
19878;DHT22;10101;52.204;9.910;2022-09-20T12:21:03;14.90;1.00
19878;DHT22;10101;52.204;9.910;2022-09-20T12:26:41;14.70;1.00
19878;DHT22;10101;52.204;9.910;2022-09-20T12:32:47;15.30;99.90
19878;DHT22;10101;52.204;9.910;2022-09-20T12:38:33;15.80;1.00
19878;DHT22;10101;52.204;9.910;2022-09-20T12:41:13;15.30;99.90
19878;DHT22;10101;52.204;9.910;2022-09-20T12:43:54;14.90;1.00
19878;DHT22;10101;52.204;9.910;2022-09-20T12:46:25;15.40;1.00
19878;DHT22;10101;52.204;9.910;2022-09-20T12:49:14;15.10;1.00
19878;DHT22;10101;52.204;9.910;2022-09-20T12:52:07;15.00;99.90
19878;DHT22;10101;52.204;9.910;2022-09-20T12:55:03;15.10;99.90
19878;DHT22;10101;52.204;9.910;2022-09-20T12:57:31;15.00;99.90
19878;DHT22;10101;52.204;9.910;2022-09-20T13:00:00;14.70;99.90
19878;DHT22;10101;52.204;9.910;2022-09-20T13:02:53;14.80;99.90
19878;DHT22;10101;52.204;9.910;2022-09-20T13:05:35;14.90;6.40
19878;DHT22;10101;52.204;9.910;2022-09-20T13:08:10;15.10;1.00
19878;DHT22;10101;52.204;9.910;2022-09-20T13:10:40;15.20;1.00
19878;DHT22;10101;52.204;9.910;2022-09-20T13:13:18;15.20;1.00
19878;DHT22;10101;52.204;9.910;2022-09-20T13:15:50;15.20;1.00
19878;DHT22;10101;52.204;9.910;2022-09-20T13:18:19;15.70;1.00
19878;DHT22;10101;52.204;9.910;2022-09-20T13:20:49;15.70;1.00
19878;DHT22;10101;52.204;9.910;2022-09-20T13:23:19;15.50;1.00
19878;DHT22;10101;52.204;9.910;2022-09-20T13:25:47;15.80;99.90
19878;DHT22;10101;52.204;9.910;2022-09-20T13:28:25;16.00;99.90
19878;DHT22;10101;52.204;9.910;2022-09-20T13:31:21;15.80;99.90
19878;DHT22;10101;52.204;9.910;2022-09-20T13:33:48;15.70;99.90
19878;DHT22;10101;52.204;9.910;2022-09-20T13:36:23;15.70;99.90
19878;DHT22;10101;52.204;9.910;2022-09-20T13:38:52;15.60;99.90
19878;DHT22;10101;52.204;9.910;2022-09-20T13:41:19;15.50;3.00
19878;DHT22;10101;52.204;9.910;2022-09-20T13:43:48;15.60;1.00
19878;DHT22;10101;52.204;9.910;2022-09-20T13:46:22;15.70;1.00
19878;DHT22;10101;52.204;9.910;2022-09-20T13:48:53;15.60;1.00
19878;DHT22;10101;52.204;9.910;2022-09-20T13:51:26;15.80;99.90
19878;DHT22;10101;52.204;9.910;2022-09-20T13:53:53;15.80;99.90
19878;DHT22;10101;52.204;9.910;2022-09-20T13:56:22;15.70;99.90
19878;DHT22;10101;52.204;9.910;2022-09-20T13:58:50;15.60;99.90
19878;DHT22;10101;52.204;9.910;2022-09-20T14:01:24;15.70;99.90
19878;DHT22;10101;52.204;9.910;2022-09-20T14:03:53;15.80;99.90
19878;DHT22;10101;52.204;9.910;2022-09-20T14:06:24;16.00;99.90
19878;DHT22;10101;52.204;9.910;2022-09-20T14:08:54;16.20;99.90
19878;DHT22;10101;52.204;9.910;2022-09-20T14:11:24;15.80;99.90
19878;DHT22;10101;52.204;9.910;2022-09-20T14:13:53;15.30;1.00
19878;DHT22;10101;52.204;9.910;2022-09-20T14:16:23;15.10;99.90
19878;DHT22;10101;52.204;9.910;2022-09-20T14:18:53;15.30;1.00
19878;DHT22;10101;52.204;9.910;2022-09-20T14:21:23;16.90;99.90
19878;DHT22;10101;52.204;9.910;2022-09-20T14:23:53;17.10;99.90
19878;DHT22;10101;52.204;9.910;2022-09-20T14:26:24;17.60;1.00
19878;DHT22;10101;52.204;9.910;2022-09-20T14:28:52;18.20;1.00
19878;DHT22;10101;52.204;9.910;2022-09-20T14:31:22;17.00;99.90
19878;DHT22;10101;52.204;9.910;2022-09-20T14:33:51;15.40;99.90
19878;DHT22;10101;52.204;9.910;2022-09-20T14:36:20;14.60;1.00
19878;DHT22;10101;52.204;9.910;2022-09-20T14:38:51;14.20;1.00
19878;DHT22;10101;52.204;9.910;2022-09-20T14:41:27;14.10;1.00
19878;DHT22;10101;52.204;9.910;2022-09-20T14:43:58;13.90;1.00
19878;DHT22;10101;52.204;9.910;2022-09-20T14:46:30;13.70;1.00
19878;DHT22;10101;52.204;9.910;2022-09-20T14:55:18;13.60;1.00
19878;DHT22;10101;52.204;9.910;2022-09-20T14:57:46;13.60;99.90
19878;DHT22;10101;52.204;9.910;2022-09-20T15:00:15;13.60;1.00
19878;DHT22;10101;52.204;9.910;2022-09-20T15:02:45;13.70;1.00
19878;DHT22;10101;52.204;9.910;2022-09-20T15:05:17;13.60;99.90
19878;DHT22;10101;52.204;9.910;2022-09-20T15:07:46;13.70;1.00
19878;DHT22;10101;52.204;9.910;2022-09-20T15:10:14;13.60;1.00
19878;DHT22;10101;52.204;9.910;2022-09-20T15:12:41;13.60;99.90
19878;DHT22;10101;52.204;9.910;2022-09-20T15:15:11;13.60;1.00
19878;DHT22;10101;52.204;9.910;2022-09-20T15:17:40;13.70;1.00
19878;DHT22;10101;52.204;9.910;2022-09-20T15:20:13;13.80;51.10
19878;DHT22;10101;52.204;9.910;2022-09-20T15:22:41;13.90;99.90
19878;DHT22;10101;52.204;9.910;2022-09-20T15:25:12;14.00;1.00
19878;DHT22;10101;52.204;9.910;2022-09-20T15:27:42;14.10;1.00
19878;DHT22;10101;52.204;9.910;2022-09-20T15:30:13;14.60;1.00
19878;DHT22;10101;52.204;9.910;2022-09-20T15:32:41;14.60;1.00
19878;DHT22;10101;52.204;9.910;2022-09-20T15:35:07;15.00;1.00
19878;DHT22;10101;52.204;9.910;2022-09-20T15:37:35;15.10;1.00
19878;DHT22;10101;52.204;9.910;2022-09-20T15:40:02;14.90;99.90
19878;DHT22;10101;52.204;9.910;2022-09-20T15:42:29;15.00;99.90
19878;DHT22;10101;52.204;9.910;2022-09-20T15:44:57;15.00;1.00
19878;DHT22;10101;52.204;9.910;2022-09-20T15:47:24;15.20;1.00
19878;DHT22;10101;52.204;9.910;2022-09-20T15:49:52;15.40;1.00
19878;DHT22;10101;52.204;9.910;2022-09-20T15:52:19;15.60;1.00
19878;DHT22;10101;52.204;9.910;2022-09-20T15:54:50;15.40;99.90
19878;DHT22;10101;52.204;9.910;2022-09-20T15:57:17;15.30;1.00
19878;DHT22;10101;52.204;9.910;2022-09-20T15:59:45;15.00;1.00
19878;DHT22;10101;52.204;9.910;2022-09-20T16:02:13;14.90;99.90
19878;DHT22;10101;52.204;9.910;2022-09-20T16:04:39;14.90;99.90
19878;DHT22;10101;52.204;9.910;2022-09-20T16:07:06;14.90;99.90
19878;DHT22;10101;52.204;9.910;2022-09-20T16:09:34;15.00;99.90
19878;DHT22;10101;52.204;9.910;2022-09-20T16:12:03;15.00;99.90
19878;DHT22;10101;52.204;9.910;2022-09-20T16:14:29;14.60;1.00
19878;DHT22;10101;52.204;9.910;2022-09-20T16:16:56;14.40;1.00
19878;DHT22;10101;52.204;9.910;2022-09-20T16:19:24;14.50;1.00
19878;DHT22;10101;52.204;9.910;2022-09-20T16:21:53;14.40;1.00
19878;DHT22;10101;52.204;9.910;2022-09-20T16:24:25;14.30;99.90
19878;DHT22;10101;52.204;9.910;2022-09-20T16:26:53;14.20;99.90
19878;DHT22;10101;52.204;9.910;2022-09-20T16:29:19;14.10;99.90
19878;DHT22;10101;52.204;9.910;2022-09-20T16:31:48;13.90;99.90
19878;DHT22;10101;52.204;9.910;2022-09-20T16:34:16;13.90;99.90
19878;DHT22;10101;52.204;9.910;2022-09-20T16:36:45;13.70;99.90
19878;DHT22;10101;52.204;9.910;2022-09-20T16:39:14;13.60;99.90
19878;DHT22;10101;52.204;9.910;2022-09-20T16:41:42;13.40;99.90
19878;DHT22;10101;52.204;9.910;2022-09-20T16:44:10;13.30;99.90
19878;DHT22;10101;52.204;9.910;2022-09-20T16:46:37;13.20;99.90
19878;DHT22;10101;52.204;9.910;2022-09-20T16:49:05;13.10;99.90
19878;DHT22;10101;52.204;9.910;2022-09-20T16:51:35;13.10;99.90
19878;DHT22;10101;52.204;9.910;2022-09-20T16:54:06;12.90;1.00
19878;DHT22;10101;52.204;9.910;2022-09-20T16:56:36;12.80;1.00
19878;DHT22;10101;52.204;9.910;2022-09-20T16:59:04;12.70;99.90
19878;DHT22;10101;52.204;9.910;2022-09-20T17:01:32;12.60;1.00
19878;DHT22;10101;52.204;9.910;2022-09-20T17:04:01;12.60;1.00
19878;DHT22;10101;52.204;9.910;2022-09-20T17:06:30;12.50;99.90
19878;DHT22;10101;52.204;9.910;2022-09-20T17:08:58;12.40;1.00